WXM80 ListenWXM80 Stop

You find our weather info also at:

UK Metoffice

WeatherCloud

Weather Underground

Northeastern Weather Network

AWEKAS

Citizen Weather Observer Program (CWOP)

HAMweather, WeatherForYou, PWS Weather


Weather Underground History page Text

Daily Summary for December 17, 2017 Units:  Metric    English   Both
« Previous Day
Next Day »
Daily Weekly Monthly Yearly Custom
  High: Low: Average:
Temperature: -17.8 °C -0.8 °C 0.3 °C
Dew Point: -17.8 °C -4.9 °C -3.8 °C
Humidity: Humidity % 67 % 74 %
Wind Speed: 0 km/h 0 km/h 1.8 km/h
Wind Gust: 0 km/h - -
Wind:- - ENE
Pressure: 0 hPa 1022.6 hPa -
Precipitation: 0 mm    
Historical Graphs
 
 
Tabular Data for December 17, 2017
Time Temperature Dew Point Pressure Wind Wind Speed Wind Gust Humidity Rainfall Rate (Hourly)
-17.8 °C -17.8 °C 0 hPa Calm     Humidity % 0 mm
00:03 1.4 °C -2.7 °C 1022.6 hPa NNE 8 km/h 11.1 km/h 74 % 0 mm
00:08 1.3 °C -2.8 °C 1022.6 hPa NNE 5.8 km/h 7.4 km/h 74 % 0 mm
00:10 1.3 °C -2.8 °C 1022.6 hPa NNE 5.5 km/h 7.4 km/h 74 % 0 mm
00:13 1.2 °C -3.1 °C 1022.6 hPa NNE 5.3 km/h 11.3 km/h 73 % 0 mm
00:19 1.2 °C -3.2 °C 1022.6 hPa NNE 6 km/h 9.7 km/h 73 % 0 mm
00:26 1.1 °C -3.2 °C 1022.6 hPa NNE 4.8 km/h 11.3 km/h 73 % 0 mm
00:31 1.1 °C -3.1 °C 1022.6 hPa NNE 3.2 km/h 8 km/h 74 % 0 mm
00:32 1.1 °C -3.1 °C 1022.6 hPa NNE 4.3 km/h 9.3 km/h 74 % 0 mm
00:35 1 °C -3.1 °C 1022.6 hPa North 9.5 km/h 13 km/h 74 % 0 mm
00:40 0.9 °C -3.4 °C 1022.9 hPa NNE 7.1 km/h 9.3 km/h 73 % 0 mm
00:41 0.9 °C -3.4 °C 1022.9 hPa NNE 6.8 km/h 9.3 km/h 73 % 0 mm
00:46 0.8 °C -3.4 °C 1022.9 hPa NNE 5 km/h 11.1 km/h 73 % 0 mm
00:47 0.8 °C -3.5 °C 1022.9 hPa NNE 9.5 km/h 17.7 km/h 73 % 0 mm
00:52 0.7 °C -3.6 °C 1022.9 hPa NNE 7.9 km/h 13 km/h 73 % 0 mm
00:53 0.7 °C -3.6 °C 1023.2 hPa NNE 8.7 km/h 14.8 km/h 73 % 0 mm
00:58 0.7 °C -3.6 °C 1023.2 hPa NNE 5.5 km/h 9.3 km/h 73 % 0 mm
01:01 0.6 °C -3.7 °C 1023.2 hPa NNE 3.4 km/h 9.3 km/h 73 % 0 mm
01:06 0.6 °C -3.9 °C 1023.2 hPa NNE 4.5 km/h 5.6 km/h 72 % 0 mm
01:07 0.6 °C -3.9 °C 1023.2 hPa NNE 4.2 km/h 5.6 km/h 72 % 0 mm
01:12 0.5 °C -3.9 °C 1023.2 hPa Calm   3.7 km/h 72 % 0 mm
01:13 0.5 °C -3.9 °C 1023.2 hPa NNE 2.3 km/h 3.7 km/h 72 % 0 mm
01:18 0.4 °C -4 °C 1023.2 hPa NNE 4.2 km/h 6.4 km/h 72 % 0 mm
01:23 0.4 °C -4.1 °C 1023.2 hPa NNE 2.4 km/h 5.6 km/h 72 % 0 mm
01:26 0.3 °C -3.9 °C 1023.2 hPa NNE 8 km/h 14.8 km/h 73 % 0 mm
01:31 0.3 °C -4.1 °C 1023.2 hPa North 2.6 km/h 5.6 km/h 72 % 0 mm
01:36 0.3 °C -4 °C 1023.2 hPa NNE 0.2 km/h 5.6 km/h 73 % 0 mm
01:41 0.2 °C -4.2 °C 1023.6 hPa NNE 2.1 km/h 5.6 km/h 72 % 0 mm
01:42 0.2 °C -4.2 °C 1023.6 hPa North 3.1 km/h 6.4 km/h 72 % 0 mm
01:47 0.2 °C -4.1 °C 1023.6 hPa NNE 1.8 km/h 7.4 km/h 73 % 0 mm
01:48 0.2 °C -4.1 °C 1023.6 hPa NNE 0.6 km/h 7.4 km/h 73 % 0 mm
01:49 0.2 °C -4.1 °C 1023.6 hPa NNE 0.3 km/h 1.9 km/h 73 % 0 mm
01:56 0.1 °C -4.4 °C 1023.9 hPa NNE 4.2 km/h 6.4 km/h 72 % 0 mm
02:01 0.1 °C -4.2 °C 1023.9 hPa NNE 1.3 km/h 4.8 km/h 73 % 0 mm
02:06 0.1 °C -4.2 °C 1023.9 hPa NNE 2.3 km/h 6.4 km/h 73 % 0 mm
02:07 0.1 °C -4.1 °C 1023.9 hPa NNE 4 km/h 5.6 km/h 74 % 0 mm
02:12 0 °C -4.3 °C 1023.9 hPa NNE 1.3 km/h 5.6 km/h 73 % 0 mm
02:14 0 °C -4.3 °C 1024.3 hPa NNE 1.6 km/h 4.8 km/h 73 % 0 mm
02:19 0 °C -4.3 °C 1024.3 hPa NNE 0.8 km/h 5.6 km/h 73 % 0 mm
02:20 0 °C -4.3 °C 1024.3 hPa NNE 0.2 km/h 1.9 km/h 73 % 0 mm
02:21 0 °C -4.3 °C 1024.3 hPa Calm   6.4 km/h 73 % 0 mm
02:26 -0.1 °C -4.3 °C 1024.3 hPa NNE 1.6 km/h 4.8 km/h 73 % 0 mm
02:27 -0.1 °C -4.1 °C 1024.3 hPa NNE 3.2 km/h 3.7 km/h 74 % 0 mm
02:29 -0.1 °C -4.3 °C 1024.3 hPa NNE 1 km/h 5.6 km/h 73 % 0 mm
02:34 -0.1 °C -4.1 °C 1023.9 hPa NNE 1.6 km/h 7.4 km/h 74 % 0 mm
02:35 -0.1 °C -4.1 °C 1023.9 hPa NNE 1.8 km/h 5.6 km/h 74 % 0 mm
02:40 -0.1 °C -4.3 °C 1024.3 hPa NNE 1.8 km/h 5.6 km/h 73 % 0 mm
02:41 -0.1 °C -4.3 °C 1023.9 hPa NNE 2.7 km/h 5.6 km/h 73 % 0 mm
02:44 -0.1 °C -4.3 °C 1024.3 hPa NNE 0.6 km/h 1.6 km/h 73 % 0 mm
02:50 -0.1 °C -4.3 °C 1024.3 hPa NNE 1.6 km/h 5.6 km/h 73 % 0 mm
02:53 -0.1 °C -4.2 °C 1024.3 hPa NNE 5.8 km/h 5.8 km/h 74 % 0 mm
02:58 -0.1 °C -4.4 °C 1024.3 hPa North 3.4 km/h 7.4 km/h 73 % 0 mm
03:03 -0.2 °C -4.4 °C 1024.3 hPa NNE 5.8 km/h 9.3 km/h 73 % 0 mm
03:04 -0.2 °C -4.4 °C 1024.3 hPa NNE 5.6 km/h 8 km/h 73 % 0 mm
03:09 -0.2 °C -4.4 °C 1024.3 hPa NNE 1.3 km/h 5.6 km/h 73 % 0 mm
03:10 -0.2 °C -4.4 °C 1024.3 hPa NNE 4 km/h 6.4 km/h 73 % 0 mm
03:11 -0.2 °C -4.4 °C 1024.3 hPa NNE 4.5 km/h 6.4 km/h 73 % 0 mm
03:16 -0.2 °C -4.6 °C 1024.3 hPa NNE 3.2 km/h 9.3 km/h 72 % 0 mm
03:20 -0.2 °C -4.6 °C 1024.6 hPa North 4.8 km/h 7.4 km/h 72 % 0 mm
03:23 -0.2 °C -4.7 °C 1024.6 hPa North 0.3 km/h 3.7 km/h 72 % 0 mm
03:28 -0.2 °C -4.7 °C 1024.6 hPa North 1.1 km/h 3.7 km/h 72 % 0 mm
03:33 -0.2 °C -4.7 °C 1024.6 hPa North 1 km/h 1.9 km/h 72 % 0 mm
03:34 -0.2 °C -4.7 °C 1024.6 hPa Calm     72 % 0 mm
03:39 -0.3 °C -4.7 °C 1024.6 hPa North 1.9 km/h 5.6 km/h 72 % 0 mm
03:42 -0.3 °C -4.7 °C 1024.6 hPa Calm     72 % 0 mm
03:47 -0.3 °C -4.7 °C 1024.6 hPa Calm     72 % 0 mm
03:48 -0.3 °C -4.7 °C 1024.6 hPa Calm     72 % 0 mm
03:53 -0.3 °C -4.7 °C 1024.3 hPa North 1.4 km/h 3.7 km/h 72 % 0 mm
03:54 -0.3 °C -4.7 °C 1024.3 hPa North 0.3 km/h 3.7 km/h 72 % 0 mm
03:59 -0.3 °C -4.6 °C 1024.3 hPa North 1.3 km/h 3.7 km/h 73 % 0 mm
04:02 -0.3 °C -4.6 °C 1024.3 hPa North 1.9 km/h 4.8 km/h 73 % 0 mm
04:09 -0.3 °C -4.7 °C 1024.6 hPa NNE 3.9 km/h 6.4 km/h 72 % 0 mm
04:13 -0.3 °C -4.7 °C 1024.9 hPa NNE 1.4 km/h 3.7 km/h 72 % 0 mm
04:18 -0.3 °C -4.7 °C 1024.9 hPa NNE 2.3 km/h 7.4 km/h 72 % 0 mm
04:23 -0.3 °C -4.7 °C 1024.9 hPa NNE 0.3 km/h 1.9 km/h 72 % 0 mm
04:28 -0.3 °C -4.7 °C 1024.9 hPa NNE 5.1 km/h 9.7 km/h 72 % 0 mm
04:33 -0.3 °C -4.7 °C 1024.9 hPa NNE 6.8 km/h 9.3 km/h 72 % 0 mm
04:38 -0.3 °C -4.6 °C 1024.9 hPa North 1.8 km/h 5.6 km/h 73 % 0 mm
04:43 -0.3 °C -4.6 °C 1024.9 hPa NNE 1.3 km/h 5.6 km/h 73 % 0 mm
04:48 -0.3 °C -4.6 °C 1024.9 hPa North 2.7 km/h 5.6 km/h 73 % 0 mm
04:49 -0.3 °C -4.6 °C 1024.9 hPa North 1.9 km/h 3.7 km/h 73 % 0 mm
04:52 -0.3 °C -4.6 °C 1024.9 hPa NNE 5.3 km/h 7.4 km/h 73 % 0 mm
04:57 -0.3 °C -4.6 °C 1024.9 hPa North 4 km/h 5.6 km/h 73 % 0 mm
05:02 -0.3 °C -4.6 °C 1024.9 hPa North 6.8 km/h 8 km/h 73 % 0 mm
05:04 -0.2 °C -4.5 °C 1024.9 hPa North 3.1 km/h 7.4 km/h 73 % 0 mm
05:09 -0.3 °C -4.6 °C 1024.9 hPa NNE 6.8 km/h 9.3 km/h 73 % 0 mm
05:14 -0.3 °C -4.6 °C 1024.9 hPa NNE 5.5 km/h 7.4 km/h 73 % 0 mm
05:15 -0.3 °C -4.6 °C 1024.9 hPa NNE 4.7 km/h 7.4 km/h 73 % 0 mm
05:20 -0.3 °C -4.6 °C 1024.9 hPa NNE 4.7 km/h 7.4 km/h 73 % 0 mm
05:21 -0.3 °C -4.6 °C 1024.9 hPa NNE 3.2 km/h 8 km/h 73 % 0 mm
05:24 -0.3 °C -4.6 °C 1024.9 hPa North 5.3 km/h 9.7 km/h 73 % 0 mm
05:28 -0.3 °C -4.6 °C 1024.6 hPa NNE 4.2 km/h 6.4 km/h 73 % 0 mm
05:31 -0.3 °C -4.6 °C 1024.6 hPa NNE 1.8 km/h 5.6 km/h 73 % 0 mm
05:36 -0.3 °C -4.6 °C 1024.6 hPa NNE 6.4 km/h 9.3 km/h 73 % 0 mm
05:38 -0.3 °C -4.6 °C 1024.6 hPa NNE 4.5 km/h 8 km/h 73 % 0 mm
05:43 -0.3 °C -4.6 °C 1024.6 hPa NNE 2.6 km/h 5.6 km/h 73 % 0 mm
05:45 -0.3 °C -4.6 °C 1024.6 hPa NNE 1.4 km/h 5.6 km/h 73 % 0 mm
05:50 -0.3 °C -4.6 °C 1024.6 hPa NNE 3.1 km/h 6.4 km/h 73 % 0 mm
05:53 -0.3 °C -4.6 °C 1024.9 hPa NNE 3.1 km/h 5.6 km/h 73 % 0 mm
05:59 -0.4 °C -4.7 °C 1024.6 hPa NNE 5.6 km/h 6.4 km/h 73 % 0 mm
06:03 -0.4 °C -4.7 °C 1024.6 hPa NNE 6.9 km/h 9.3 km/h 73 % 0 mm
06:08 -0.4 °C -4.7 °C 1024.6 hPa North 5.1 km/h 7.4 km/h 73 % 0 mm
06:09 -0.4 °C -4.7 °C 1024.6 hPa NE 6.6 km/h 9.7 km/h 73 % 0 mm
06:14 -0.4 °C -4.7 °C 1024.6 hPa NNE 4.8 km/h 8 km/h 73 % 0 mm
06:19 -0.4 °C -4.7 °C 1024.9 hPa NNE 0.6 km/h 3.7 km/h 73 % 0 mm
06:24 -0.4 °C -4.4 °C 1024.6 hPa NNE 1.1 km/h 5.6 km/h 74 % 0 mm
06:29 -0.4 °C -4.7 °C 1024.6 hPa NNE 5.8 km/h 9.3 km/h 73 % 0 mm
06:34 -0.5 °C -4.7 °C 1024.6 hPa NNE 0.8 km/h 5.6 km/h 73 % 0 mm
06:37 -0.5 °C -4.6 °C 1024.6 hPa NNE 1.9 km/h 7.4 km/h 74 % 0 mm
06:39 -0.5 °C -4.7 °C 1024.6 hPa NNE 4.2 km/h 7.4 km/h 73 % 0 mm
06:44 -0.6 °C -4.6 °C 1024.6 hPa NNE 4.8 km/h 5.6 km/h 74 % 0 mm
06:49 -0.6 °C -4.8 °C 1024.6 hPa NE 1.4 km/h 5.6 km/h 73 % 0 mm
06:50 -0.7 °C -4.9 °C 1024.6 hPa NNE 4.7 km/h 5.6 km/h 73 % 0 mm
06:52 -0.7 °C -4.9 °C 1024.6 hPa NNE 2.7 km/h 5.6 km/h 73 % 0 mm
06:57 -0.7 °C -4.9 °C 1024.6 hPa NE 0.3 km/h 3.7 km/h 73 % 0 mm
06:58 -0.7 °C -4.9 °C 1024.6 hPa ENE 3.1 km/h 4.8 km/h 73 % 0 mm
07:08 -0.8 °C -4.8 °C 1024.9 hPa ENE 2.4 km/h 7.4 km/h 74 % 0 mm
07:10 -0.8 °C -4.8 °C 1024.9 hPa ENE 1.1 km/h 3.7 km/h 74 % 0 mm
07:15 -0.8 °C -4.8 °C 1024.9 hPa NNE 3.7 km/h 7.4 km/h 74 % 0 mm
07:18 -0.8 °C -4.8 °C 1025.3 hPa NNE 4.8 km/h 11.1 km/h 74 % 0 mm
07:20 -0.8 °C -4.9 °C 1025.3 hPa NNE 4.3 km/h 9.3 km/h 74 % 0 mm
07:25 -0.8 °C -4.9 °C 1024.9 hPa NE 3.5 km/h 5.6 km/h 74 % 0 mm
07:26 -0.8 °C -4.9 °C 1024.9 hPa NNE 3.2 km/h 8 km/h 74 % 0 mm
07:31 -0.8 °C -4.9 °C 1025.3 hPa NE 3.2 km/h 8 km/h 74 % 0 mm
07:36 -0.8 °C -4.8 °C 1025.3 hPa NNE 0.5 km/h 3.7 km/h 74 % 0 mm
07:37 -0.8 °C -4.8 °C 1025.6 hPa NNE 0.3 km/h 1.9 km/h 74 % 0 mm
07:42 -0.8 °C -4.8 °C 1025.6 hPa NNE 0.3 km/h 5.6 km/h 74 % 0 mm
07:43 -0.8 °C -4.8 °C 1025.6 hPa NNE 2.1 km/h 6.4 km/h 74 % 0 mm
07:48 -0.8 °C -4.8 °C 1025.6 hPa North 0.3 km/h 5.6 km/h 74 % 0 mm
07:53 -0.7 °C -4.8 °C 1025.6 hPa North 1.3 km/h 5.6 km/h 74 % 0 mm
07:56 -0.7 °C -4.8 °C 1025.6 hPa North 3.4 km/h 5.6 km/h 74 % 0 mm
08:00 -0.7 °C -4.9 °C 1025.6 hPa NNE 4.2 km/h 5.6 km/h 73 % 0 mm
08:05 -0.6 °C -4.8 °C 1025.6 hPa NNE 4.5 km/h 5.6 km/h 73 % 0 mm
08:10 -0.6 °C -4.8 °C 1025.6 hPa NNE 0.6 km/h 5.6 km/h 73 % 0 mm
08:12 -0.6 °C -4.6 °C 1025.6 hPa NNE 2.1 km/h 3.7 km/h 74 % 0 mm
08:17 -0.5 °C -4.6 °C 1025.6 hPa North 3.7 km/h 8 km/h 74 % 0 mm
08:18 -0.5 °C -4.6 °C 1025.6 hPa NNE 5.8 km/h 7.4 km/h 74 % 0 mm
08:20 -0.4 °C -4.5 °C 1025.6 hPa NNE 1 km/h 5.6 km/h 74 % 0 mm
08:26 -0.4 °C -4.5 °C 1025.6 hPa NNE 8 km/h 9.7 km/h 74 % 0 mm
08:30 -0.4 °C -4.4 °C 1025.6 hPa NNE 1.4 km/h 7.4 km/h 74 % 0 mm
08:35 -0.3 °C -4.4 °C 1025.6 hPa NNE 1 km/h 3.7 km/h 74 % 0 mm
08:37 -0.3 °C -4.4 °C 1025.6 hPa NNE 4.5 km/h 6.4 km/h 74 % 0 mm
08:42 -0.3 °C -4.6 °C 1025.6 hPa NNE 3.9 km/h 5.6 km/h 73 % 0 mm
08:47 -0.3 °C -4.6 °C 1025.6 hPa NE 1.9 km/h 5.6 km/h 73 % 0 mm
08:48 -0.3 °C -4.6 °C 1025.6 hPa NNE 6 km/h 7.4 km/h 73 % 0 mm
08:53 -0.3 °C -4.6 °C 1025.6 hPa NNE 0.5 km/h 3.7 km/h 73 % 0 mm
08:59 -0.3 °C -4.6 °C 1026 hPa NNE 0.8 km/h 5.6 km/h 73 % 0 mm
09:04 -0.3 °C -4.6 °C 1026 hPa ENE 4.3 km/h 6.4 km/h 73 % 0 mm
09:08 -0.3 °C -4.6 °C 1026 hPa NNE 3.9 km/h 7.4 km/h 73 % 0 mm
09:13 -0.2 °C -4.5 °C 1026 hPa NE 3.1 km/h 5.6 km/h 73 % 0 mm
09:14 -0.2 °C -4.5 °C 1026 hPa NNE 5.5 km/h 9.3 km/h 73 % 0 mm
09:20 -0.2 °C -4.5 °C 1026 hPa NE 3.4 km/h 5.6 km/h 73 % 0 mm
09:24 -0.2 °C -4.5 °C 1026 hPa NE 2.7 km/h 5.6 km/h 73 % 0 mm
09:29 -0.2 °C -4.3 °C 1026 hPa ENE 3.7 km/h 5.6 km/h 74 % 0 mm
09:35 -0.2 °C -4.3 °C 1026.3 hPa NNE 1.8 km/h 5.6 km/h 74 % 0 mm
09:36 -0.2 °C -4.3 °C 1026 hPa NE 2.3 km/h 5.6 km/h 74 % 0 mm
09:41 -0.2 °C -4.3 °C 1026 hPa Calm   5.6 km/h 74 % 0 mm
09:46 -0.2 °C -4.2 °C 1026.3 hPa NE 0.6 km/h 5.6 km/h 74 % 0 mm
09:48 -0.2 °C -4.2 °C 1026 hPa NNE 6.1 km/h 9.3 km/h 74 % 0 mm
09:50 -0.1 °C -4 °C 1026 hPa NNE 2.6 km/h 5.6 km/h 75 % 0 mm
09:55 -0.1 °C -3.9 °C 1026 hPa NNE 5.3 km/h 9.3 km/h 75 % 0 mm
09:57 -0.1 °C -4.1 °C 1026 hPa NNE 0.6 km/h 3.7 km/h 74 % 0 mm
09:58 0 °C -4.1 °C 1026 hPa NE 3.1 km/h 5.6 km/h 74 % 0 mm
10:03 0 °C -4.4 °C 1026.3 hPa ENE 0.5 km/h 1.9 km/h 72 % 0 mm
10:05 0 °C -4.4 °C 1026.3 hPa ENE 1.3 km/h 3.7 km/h 72 % 0 mm
10:10 0 °C -4.4 °C 1026.3 hPa NE 1.4 km/h 3.7 km/h 72 % 0 mm
10:15 0.1 °C -4.2 °C 1026.3 hPa North 2.7 km/h 5.6 km/h 73 % 0 mm
10:20 0.2 °C -4.1 °C 1026.3 hPa Calm   3.2 km/h 73 % 0 mm
10:21 0.2 °C -4.1 °C 1026.3 hPa North 1.4 km/h 4.8 km/h 73 % 0 mm
10:27 0.2 °C -4.2 °C 1026.3 hPa North 1.9 km/h 3.7 km/h 72 % 0 mm
10:29 0.2 °C -4.4 °C 1026.3 hPa Calm     71 % 0 mm
10:34 0.2 °C -4.5 °C 1026 hPa ENE 0.5 km/h 1.9 km/h 71 % 0 mm
10:35 0.2 °C -4.7 °C 1026.3 hPa Calm   1.9 km/h 70 % 0 mm
10:40 0.2 °C -4.7 °C 1026 hPa ENE 0.2 km/h 1.9 km/h 70 % 0 mm
10:45 0.1 °C -4.6 °C 1026 hPa NE 0.8 km/h 1.9 km/h 71 % 0 mm
10:50 0.1 °C -4.6 °C 1026 hPa Calm     71 % 0 mm
10:55 0.1 °C -4.3 °C 1026 hPa Calm     72 % 0 mm
11:00 0.1 °C -4.3 °C 1026 hPa NNE 0.3 km/h 3.2 km/h 72 % 0 mm
11:05 0.2 °C -4.1 °C 1025.6 hPa NNE 0.5 km/h 1.9 km/h 73 % 0 mm
11:10 0.3 °C -4.2 °C 1026 hPa NNE 2.3 km/h 7.4 km/h 72 % 0 mm
11:12 0.3 °C -3.9 °C 1026 hPa NNE 1 km/h 3.7 km/h 73 % 0 mm
11:17 0.3 °C -4.1 °C 1026 hPa NNE 1.4 km/h 3.2 km/h 72 % 0 mm
11:18 0.4 °C -4.1 °C 1025.6 hPa NNE 5.6 km/h 8 km/h 72 % 0 mm
11:24 0.4 °C -4 °C 1025.3 hPa NE 4.3 km/h 5.6 km/h 72 % 0 mm
11:25 0.4 °C -4 °C 1025.3 hPa NE 3.5 km/h 5.6 km/h 72 % 0 mm
11:30 0.5 °C -3.9 °C 1025.3 hPa Calm     72 % 0 mm
11:35 0.5 °C -4.3 °C 1025.3 hPa Calm   1.9 km/h 70 % 0 mm
11:40 0.5 °C -4.2 °C 1025.3 hPa NE 0.8 km/h 1.9 km/h 71 % 0 mm
11:43 0.5 °C -4.2 °C 1025.3 hPa NE 0.2 km/h 1.9 km/h 71 % 0 mm
11:48 0.5 °C -4.2 °C 1025.3 hPa NE 0.3 km/h 3.7 km/h 71 % 0 mm
11:50 0.4 °C -4.2 °C 1025.3 hPa NE 0.2 km/h 1.9 km/h 71 % 0 mm
11:51 0.4 °C -4.2 °C 1025.3 hPa NE 1.4 km/h 3.7 km/h 71 % 0 mm
11:56 0.4 °C -4 °C 1025.3 hPa NNE 5.6 km/h 7.4 km/h 72 % 0 mm
12:01 0.4 °C -4 °C 1025.6 hPa Calm   1.9 km/h 72 % 0 mm
12:06 0.5 °C -3.8 °C 1025.6 hPa Calm   4.8 km/h 73 % 0 mm
12:11 0.6 °C -3.7 °C 1025.3 hPa North 2.7 km/h 5.6 km/h 73 % 0 mm
12:12 0.6 °C -3.7 °C 1025.3 hPa North 0.8 km/h 5.6 km/h 73 % 0 mm
12:17 0.7 °C -3.8 °C 1025.3 hPa North 3.2 km/h 4.8 km/h 72 % 0 mm
12:24 0.8 °C -3.8 °C 1025.3 hPa NNE 3.9 km/h 5.6 km/h 71 % 0 mm
12:25 0.8 °C -3.8 °C 1025.3 hPa NNE 2.7 km/h 5.6 km/h 71 % 0 mm
12:30 0.9 °C -3.7 °C 1024.9 hPa NNE 6 km/h 7.4 km/h 71 % 0 mm
12:35 1.1 °C -3.6 °C 1024.9 hPa NNE 1.9 km/h 4.8 km/h 71 % 0 mm
12:36 1.2 °C -3.5 °C 1024.9 hPa North 3.7 km/h 6.4 km/h 71 % 0 mm
12:40 1.2 °C -3.4 °C 1024.9 hPa NNW 3.5 km/h 7.4 km/h 71 % 0 mm
12:42 1.3 °C -3.6 °C 1024.6 hPa NNW 0.2 km/h 3.7 km/h 70 % 0 mm
12:47 1.4 °C -3.5 °C 1024.6 hPa NNW 0.8 km/h 5.6 km/h 70 % 0 mm
12:52 1.5 °C -3.4 °C 1024.6 hPa NNE 3.5 km/h 7.4 km/h 70 % 0 mm
12:54 1.6 °C -3.3 °C 1024.6 hPa NNE 6.3 km/h 7.4 km/h 70 % 0 mm
12:59 1.7 °C -3.4 °C 1024.6 hPa NNE 2.1 km/h 5.6 km/h 69 % 0 mm
13:02 1.7 °C -3.4 °C 1024.3 hPa NNE 1 km/h 3.7 km/h 69 % 0 mm
13:07 1.8 °C -3.3 °C 1024.3 hPa NNE 2.4 km/h 5.6 km/h 69 % 0 mm
13:09 1.8 °C -3.3 °C 1024.3 hPa NNE 2.4 km/h 5.6 km/h 69 % 0 mm
13:12 1.8 °C -3.3 °C 1024.3 hPa NNE 3.7 km/h 5.6 km/h 69 % 0 mm
13:19 1.8 °C -3.3 °C 1024.3 hPa NNE 1.4 km/h 4.8 km/h 69 % 0 mm
13:24 1.8 °C -3.3 °C 1024.3 hPa NNE 2.3 km/h 3.7 km/h 69 % 0 mm
13:28 1.8 °C -3.3 °C 1024.3 hPa Calm     69 % 0 mm
13:30 1.8 °C -3.5 °C 1024.3 hPa Calm   1.9 km/h 68 % 0 mm
13:35 1.8 °C -3.5 °C 1024.3 hPa NNE 3.1 km/h 6.4 km/h 68 % 0 mm
13:36 1.8 °C -3.5 °C 1024.3 hPa NNE 3.4 km/h 5.6 km/h 68 % 0 mm
13:37 1.8 °C -3.5 °C 1024.3 hPa NNE 1.6 km/h 5.6 km/h 68 % 0 mm
13:42 1.7 °C -3.4 °C 1024.3 hPa NNE 0.8 km/h 3.7 km/h 69 % 0 mm
13:46 1.7 °C -3.4 °C 1023.9 hPa Calm   3.7 km/h 69 % 0 mm
13:51 1.8 °C -3.5 °C 1023.9 hPa NNW 0.5 km/h 3.7 km/h 68 % 0 mm
13:56 1.8 °C -3.4 °C 1023.9 hPa NNW 0.5 km/h 3.7 km/h 68 % 0 mm
14:01 1.8 °C -3.3 °C 1023.9 hPa NW 1.3 km/h 5.6 km/h 69 % 0 mm
14:02 1.8 °C -3.3 °C 1023.9 hPa NW 0.8 km/h 5.6 km/h 69 % 0 mm
14:07 1.8 °C -3.3 °C 1023.9 hPa NW 0.2 km/h 1.9 km/h 69 % 0 mm
14:09 1.9 °C -3.4 °C 1024.3 hPa NW 0.2 km/h 1.9 km/h 68 % 0 mm
14:14 1.9 °C -3.4 °C 1024.3 hPa NW 1 km/h 3.7 km/h 68 % 0 mm
14:20 1.9 °C -3.4 °C 1024.3 hPa NW 0.8 km/h 1.9 km/h 68 % 0 mm
14:21 1.9 °C -3.4 °C 1024.3 hPa NW 1.3 km/h 3.7 km/h 68 % 0 mm
14:26 1.8 °C -3.4 °C 1023.9 hPa Calm     68 % 0 mm
14:30 1.8 °C -3.4 °C 1023.9 hPa NW 1.8 km/h 3.7 km/h 68 % 0 mm
14:35 1.8 °C -3.7 °C 1023.9 hPa Calm     67 % 0 mm
14:38 1.8 °C -3.5 °C 1023.9 hPa Calm   1.6 km/h 68 % 0 mm
14:43 1.7 °C -3.6 °C 1023.9 hPa North 4.2 km/h 5.6 km/h 68 % 0 mm
14:45 1.7 °C -3.6 °C 1023.9 hPa North 1.9 km/h 5.6 km/h 68 % 0 mm
14:50 1.7 °C -3.4 °C 1023.9 hPa NNE 3.1 km/h 5.6 km/h 69 % 0 mm
14:51 1.6 °C -3.4 °C 1023.9 hPa NNE 2.9 km/h 5.6 km/h 69 % 0 mm
14:56 1.6 °C -3.3 °C 1023.9 hPa NNE 0.8 km/h 3.7 km/h 70 % 0 mm
14:57 1.6 °C -3.3 °C 1023.9 hPa NNE 2.4 km/h 6.4 km/h 70 % 0 mm
15:02 1.6 °C -3.1 °C 1023.9 hPa NNE 0.5 km/h 3.7 km/h 71 % 0 mm
15:06 1.6 °C -3.3 °C 1024.3 hPa NNE 0.3 km/h 1.9 km/h 70 % 0 mm
15:11 1.5 °C -3.4 °C 1024.3 hPa NNE 1.8 km/h 3.7 km/h 70 % 0 mm
15:12 1.5 °C -3.2 °C 1024.3 hPa Calm   3.7 km/h 71 % 0 mm
15:16 1.5 °C -3.4 °C 1024.3 hPa NNE 3.5 km/h 5.6 km/h 70 % 0 mm
15:19 1.5 °C -3.2 °C 1024.3 hPa NNE 3.9 km/h 6.4 km/h 71 % 0 mm
15:24 1.4 °C -3.4 °C 1024.3 hPa NNE 2.4 km/h 6.4 km/h 70 % 0 mm
15:29 1.4 °C -3.3 °C 1024.3 hPa NNE 1.1 km/h 3.7 km/h 71 % 0 mm
15:32 1.4 °C -3.3 °C 1024.3 hPa Calm     71 % 0 mm
15:37 1.3 °C -3.3 °C 1024.3 hPa NNE 2.9 km/h 6.4 km/h 71 % 0 mm
15:40 1.3 °C -3.4 °C 1023.9 hPa NNE 3.5 km/h 5.6 km/h 71 % 0 mm
15:45 1.2 °C -3.4 °C 1023.9 hPa NNE 2.9 km/h 5.6 km/h 71 % 0 mm
15:47 1.2 °C -3.5 °C 1023.9 hPa NNE 1 km/h 3.2 km/h 71 % 0 mm
15:52 1.2 °C -3.5 °C 1024.3 hPa Calm     71 % 0 mm
15:53 1.2 °C -3.5 °C 1024.3 hPa Calm     71 % 0 mm
15:58 1.2 °C -3.5 °C 1024.3 hPa NNE 0.3 km/h 3.7 km/h 71 % 0 mm
15:59 1.2 °C -3.7 °C 1024.3 hPa Calm   3.7 km/h 70 % 0 mm
16:01 1.2 °C -3.7 °C 1024.3 hPa Calm     70 % 0 mm
16:06 1.1 °C -3.8 °C 1023.9 hPa Calm     70 % 0 mm
16:07 1.1 °C -3.8 °C 1023.9 hPa Calm     70 % 0 mm
16:11 1.1 °C -3.8 °C 1023.9 hPa Calm     70 % 0 mm
16:16 1.1 °C -3.8 °C 1024.3 hPa Calm     70 % 0 mm
16:21 1.1 °C -3.8 °C 1024.3 hPa Calm     70 % 0 mm
16:26 1 °C -3.9 °C 1024.3 hPa Calm     70 % 0 mm
16:28 0.9 °C -3.9 °C 1023.9 hPa Calm     70 % 0 mm
16:33 0.8 °C -3.8 °C 1024.3 hPa Calm     71 % 0 mm
16:36 0.8 °C -3.7 °C 1024.3 hPa Calm     72 % 0 mm
16:38 0.8 °C -3.7 °C 1024.3 hPa Calm     72 % 0 mm
16:43 0.7 °C -3.8 °C 1024.3 hPa Calm     72 % 0 mm
16:47 0.6 °C -3.8 °C 1024.3 hPa Calm     72 % 0 mm
16:51 0.6 °C -3.9 °C 1024.3 hPa Calm     72 % 0 mm
16:56 0.5 °C -3.8 °C 1024.6 hPa Calm     73 % 0 mm
16:58 0.4 °C -3.8 °C 1024.3 hPa Calm     73 % 0 mm
17:03 0.4 °C -3.9 °C 1024.3 hPa Calm     73 % 0 mm
17:05 0.3 °C -3.8 °C 1024.3 hPa Calm     74 % 0 mm
17:10 0.3 °C -3.6 °C 1024.3 hPa Calm     75 % 0 mm
17:14 0.2 °C -3.5 °C 1024.3 hPa Calm     76 % 0 mm
17:19 0.1 °C -3.4 °C 1024.6 hPa Calm     77 % 0 mm
17:20 0.1 °C -3.4 °C 1024.6 hPa Calm     77 % 0 mm
17:22 0.1 °C -3.4 °C 1024.6 hPa Calm     77 % 0 mm
17:27 0.1 °C -3.5 °C 1024.6 hPa Calm     77 % 0 mm
17:28 0.1 °C -3.5 °C 1024.3 hPa Calm     77 % 0 mm
17:29 0 °C -3.7 °C 1024.3 hPa Calm     76 % 0 mm
17:34 -0.1 °C -3.8 °C 1024.3 hPa Calm     76 % 0 mm
17:35 -0.1 °C -3.8 °C 1024.3 hPa Calm     76 % 0 mm
17:40 -0.1 °C -3.7 °C 1024.6 hPa Calm     77 % 0 mm
17:45 -0.2 °C -3.6 °C 1024.6 hPa Calm     78 % 0 mm
17:50 -0.2 °C -3.6 °C 1024.3 hPa Calm     78 % 0 mm
17:51 -0.2 °C -3.6 °C 1024.3 hPa Calm     78 % 0 mm
17:57 -0.3 °C -3.7 °C 1024.3 hPa Calm     78 % 0 mm
18:00 -0.3 °C -3.7 °C 1024.3 hPa Calm     78 % 0 mm
18:05 -0.3 °C -3.7 °C 1024.3 hPa Calm     78 % 0 mm
18:06 -0.3 °C -3.7 °C 1024.3 hPa Calm     78 % 0 mm
18:10 -0.3 °C -3.7 °C 1024.6 hPa Calm     78 % 0 mm
18:15 -0.3 °C -3.7 °C 1024.6 hPa Calm     78 % 0 mm
18:18 -0.3 °C -3.7 °C 1024.6 hPa Calm     78 % 0 mm
18:23 -0.3 °C -3.5 °C 1024.6 hPa Calm     79 % 0 mm
18:26 -0.3 °C -3.3 °C 1024.6 hPa Calm     80 % 0 mm
18:31 -0.3 °C -3.3 °C 1024.6 hPa Calm     80 % 0 mm
18:33 -0.3 °C -3.3 °C 1024.6 hPa Calm     80 % 0 mm
18:35 -0.3 °C -3.3 °C 1024.6 hPa Calm     80 % 0 mm
18:39 -0.3 °C -3.3 °C 1024.6 hPa Calm     80 % 0 mm
18:42 -0.3 °C -3.3 °C 1024.9 hPa NNE 0.3 km/h 1.9 km/h 80 % 0 mm
18:44 -0.3 °C -3.3 °C 1024.9 hPa Calm   1.9 km/h 80 % 0 mm
18:49 -0.2 °C -3.3 °C 1025.3 hPa Calm   1.9 km/h 80 % 0 mm
18:50 -0.2 °C -3.3 °C 1025.3 hPa Calm     80 % 0 mm
18:55 -0.2 °C -3.3 °C 1024.9 hPa Calm     80 % 0 mm
18:56 -0.2 °C -3.3 °C 1024.9 hPa Calm     80 % 0 mm
18:57 -0.2 °C -3.3 °C 1024.9 hPa Calm     80 % 0 mm
19:02 -0.2 °C -3.3 °C 1024.9 hPa Calm     80 % 0 mm
19:07 -0.2 °C -3.2 °C 1024.9 hPa Calm     80 % 0 mm
19:08 -0.2 °C -3.2 °C 1024.9 hPa Calm     80 % 0 mm
19:09 -0.2 °C -3.2 °C 1024.9 hPa Calm     80 % 0 mm
19:14 -0.1 °C -3.2 °C 1025.3 hPa Calm     80 % 0 mm
19:17 -0.1 °C -3.2 °C 1025.3 hPa Calm     80 % 0 mm
19:22 -0.1 °C -3.2 °C 1025.3 hPa Calm     80 % 0 mm
19:27 -0.1 °C -3.1 °C 1025.3 hPa Calm     80 % 0 mm
19:32 -0.1 °C -3.1 °C 1024.9 hPa Calm     80 % 0 mm
19:37 0 °C -2.9 °C 1024.9 hPa Calm     81 % 0 mm
19:38 0 °C -2.9 °C 1024.9 hPa Calm     81 % 0 mm
19:43 0 °C -2.9 °C 1024.9 hPa Calm     81 % 0 mm
19:48 0 °C -2.9 °C 1025.3 hPa Calm     81 % 0 mm
19:54 0.1 °C -2.8 °C 1024.9 hPa Calm     81 % 0 mm
19:55 0.1 °C -2.8 °C 1025.3 hPa Calm     81 % 0 mm
19:56 0.1 °C -2.8 °C 1025.3 hPa Calm     81 % 0 mm
20:01 0.1 °C -2.8 °C 1025.3 hPa Calm     81 % 0 mm
20:02 0.1 °C -2.8 °C 1025.3 hPa Calm     81 % 0 mm
20:03 0.1 °C -2.8 °C 1025.3 hPa Calm     81 % 0 mm
20:08 0.1 °C -2.8 °C 1024.9 hPa Calm     81 % 0 mm
20:11 0.1 °C -2.8 °C 1024.9 hPa Calm     81 % 0 mm
20:17 0.1 °C -2.8 °C 1024.6 hPa Calm     81 % 0 mm
20:22 0.1 °C -2.8 °C 1024.6 hPa Calm     81 % 0 mm
20:23 0.2 °C -2.7 °C 1024.6 hPa Calm     81 % 0 mm
20:28 0.2 °C -2.7 °C 1024.9 hPa Calm     81 % 0 mm
20:29 0.2 °C -2.7 °C 1024.6 hPa Calm     81 % 0 mm
20:35 0.2 °C -2.7 °C 1024.6 hPa Calm     81 % 0 mm
20:38 0.2 °C -2.7 °C 1024.6 hPa Calm     81 % 0 mm
20:43 0.2 °C -2.7 °C 1024.6 hPa Calm     81 % 0 mm
20:46 0.2 °C -2.5 °C 1024.3 hPa Calm     82 % 0 mm
20:52 0.2 °C -2.5 °C 1024.3 hPa Calm     82 % 0 mm
20:55 0.2 °C -2.5 °C 1024.3 hPa Calm     82 % 0 mm
21:00 0.3 °C -2.4 °C 1024.3 hPa Calm     82 % 0 mm
21:01 0.3 °C -2.4 °C 1024.3 hPa Calm     82 % 0 mm
21:06 0.3 °C -2.4 °C 1024.3 hPa Calm     82 % 0 mm
21:07 0.3 °C -2.4 °C 1024.3 hPa Calm     82 % 0 mm
21:12 0.3 °C -2.6 °C 1023.9 hPa Calm     81 % 0 mm
21:13 0.3 °C -2.6 °C 1023.9 hPa Calm     81 % 0 mm
21:16 0.3 °C -2.4 °C 1023.9 hPa Calm     82 % 0 mm
21:18 0.3 °C -2.4 °C 1024.3 hPa Calm     82 % 0 mm
21:23 0.3 °C -2.6 °C 1024.3 hPa Calm     81 % 0 mm
21:24 0.3 °C -2.4 °C 1024.3 hPa Calm     82 % 0 mm
21:29 0.3 °C -2.4 °C 1024.3 hPa Calm     82 % 0 mm
21:34 0.4 °C -2.3 °C 1024.3 hPa Calm     82 % 0 mm
21:36 0.4 °C -2.3 °C 1023.9 hPa Calm     82 % 0 mm
21:41 0.4 °C -2.3 °C 1023.9 hPa Calm     82 % 0 mm
21:42 0.4 °C -2.3 °C 1023.9 hPa Calm     82 % 0 mm
21:47 0.4 °C -2.4 °C 1023.9 hPa Calm   1.9 km/h 81 % 0 mm
21:50 0.5 °C -2.4 °C 1024.3 hPa Calm     81 % 0 mm
21:51 0.5 °C -2.4 °C 1024.3 hPa Calm     81 % 0 mm
21:56 0.5 °C -2.4 °C 1023.9 hPa Calm     81 % 0 mm
21:59 0.6 °C -2.3 °C 1023.9 hPa Calm     81 % 0 mm
22:00 0.6 °C -2.3 °C 1024.3 hPa Calm     81 % 0 mm
22:05 0.6 °C -2.5 °C 1023.9 hPa Calm     80 % 0 mm
22:06 0.6 °C -2.5 °C 1023.9 hPa Calm   1.6 km/h 80 % 0 mm
22:12 0.7 °C -2.4 °C 1023.9 hPa East 0.5 km/h 5.6 km/h 80 % 0 mm
22:18 0.7 °C -2.6 °C 1023.9 hPa East 0.2 km/h 1.6 km/h 79 % 0 mm
22:23 0.7 °C -2.6 °C 1023.9 hPa Calm   1.9 km/h 79 % 0 mm
22:27 0.7 °C -2.7 °C 1023.6 hPa East 0.6 km/h 1.9 km/h 78 % 0 mm
22:30 0.7 °C -2.7 °C 1023.9 hPa East 1.3 km/h 3.7 km/h 78 % 0 mm
22:35 0.8 °C -2.6 °C 1023.9 hPa Calm     78 % 0 mm
22:38 0.8 °C -2.6 °C 1023.6 hPa East 1.9 km/h 5.6 km/h 78 % 0 mm
22:43 0.8 °C -2.8 °C 1023.6 hPa Calm     77 % 0 mm
22:49 0.8 °C -2.8 °C 1023.6 hPa East 1.3 km/h 1.9 km/h 77 % 0 mm
22:51 0.8 °C -2.8 °C 1023.2 hPa East 1 km/h 3.7 km/h 77 % 0 mm
22:55 0.8 °C -3 °C 1023.2 hPa ESE 1 km/h 5.6 km/h 76 % 0 mm
22:58 0.8 °C -3 °C 1023.2 hPa ESE 1.1 km/h 3.7 km/h 76 % 0 mm
23:03 0.8 °C -2.9 °C 1023.2 hPa Calm     76 % 0 mm
23:06 0.8 °C -2.9 °C 1023.2 hPa ESE 0.3 km/h 1.9 km/h 76 % 0 mm
23:07 0.8 °C -2.9 °C 1023.2 hPa ESE 0.3 km/h 3.7 km/h 76 % 0 mm
23:12 0.8 °C -3.2 °C 1022.9 hPa SE 0.2 km/h 5.6 km/h 75 % 0 mm
23:17 0.8 °C -3.1 °C 1022.9 hPa Calm   3.7 km/h 75 % 0 mm
23:20 0.8 °C -3.3 °C 1022.9 hPa SE 0.5 km/h 1.9 km/h 74 % 0 mm
23:23 0.8 °C -3.3 °C 1022.9 hPa SE 1.9 km/h 3.7 km/h 74 % 0 mm
23:28 0.8 °C -3.3 °C 1022.9 hPa SE 1.1 km/h 3.2 km/h 74 % 0 mm
23:33 0.8 °C -3.3 °C 1022.9 hPa SE 1.1 km/h 3.7 km/h 74 % 0 mm
23:34 0.8 °C -3.3 °C 1022.9 hPa SE 0.3 km/h 3.7 km/h 74 % 0 mm
23:39 0.8 °C -3.5 °C 1022.9 hPa SE 0.2 km/h 1.9 km/h 73 % 0 mm
23:41 0.8 °C -3.4 °C 1022.9 hPa SE 1 km/h 3.7 km/h 73 % 0 mm
23:50 0.8 °C -3.5 °C 1022.9 hPa SE 0.2 km/h 1.9 km/h 73 % 0 mm
23:55 0.8 °C -3.5 °C 1022.9 hPa Calm     73 % 0 mm
23:57 0.8 °C -3.5 °C 1022.9 hPa Calm     73 % 0 mm
Crab Meadow Weather
Compliments of Weather Underground - 3.5 mb

Script developed by  Jim McMurry - jmcmurry@mwt.net Adapted for the template by  Wim van der Kuil - Leuven-Template.eu

Snow: Snowflakes generally fall from the sky at speeds between one and five miles per hour.